Aérodrome :
LOGIN :

S'inscrire | Disclaimer

   EN    FR    IT 

 










Légende :    VFR   VFR Marginal   IFR   IFR Intensif   IFR Très Intensif
Visi : 
Plafond : 
>= 8 km
>= 3000ft
5 à 8 km
1000 à 3000 ft
1500m à 5 km
500 à 1000 ft
800 à 1500m
200 à 500 ft
< 800m
< 200 ft
Symboles :   Orages  Brouillard  Fortes neiges  Fortes précipitations  Vent > 20 kt
SIGMETs :   Divers  Orages  Givrage  Turbulence  Onde Orograph.  Cendres Volcan.







- Altitude de l'aérodrome : 308 ft
- Code IATA : POZ


EPPO - Poznan-Lawica

DERNIER METAR :
  • 230000Z 30003KT 9999 OVC023 17/15 Q1021

METARs EXPIRÉS :
  • 222330Z 32004KT 9999 OVC028 17/15 Q1021
  • 222300Z 30003KT 9999 OVC030 17/15 Q1021
  • 222230Z 30004KT 9999 OVC039 17/15 Q1022
  • 222200Z 32004KT 9999 -RA FEW045 17/15 Q1022
  • 222130Z 32004KT 9999 -RA BKN046 17/16 Q1022

TAF TAF EPPO
Valide du 23 à 00h jusqu'au 24 à 00h UTC


222330Z 2300/2324 30003KT 9999 OVC030
BECMG 2300/2303 BKN013
TEMPO 2300/2310 3000 RA BR BKN004 BKN013
PROB30
TEMPO 2310/2313 BKN006 BKN013
BECMG 2313/2315 BKN020
Pas de NOTAMs connus pour ce terrain.



MET'MAP, la Météo Aéronautique d'un coup d'oeil ! - Copyright ORBIFLY Décembre 2007 - Disclaimer

ORBIFLY MET'MAP TEAM :

Programmation & Développement : Alexandra Zaïnal
Conception & Développement : Baudouin d'Aumeries
Co-Programmation & Développement : Marc-Olivier Méhu
Soutien technique & logistique : Manuel Goepfert

Contact : metmap@orbifly.com




SOURCES & CREDITS :

   NOAA